Parrottsville, Tennessee
Current Conditions -  °F | °C
As of 5:55 PM on Thursday 27 Nov 2014 (Local Time) from KMOR Reporting Station
Broken Clouds Broken Clouds  
Wind Chill: 25°   Ceiling: 3000
Heat Index: 34°   Visibility: 10mi
Dew Point: 27°   Wind: 12mph
Humidity: 75%   Direction: 330°NNW
Pressure: 30.32"   Gusts: NA
Location:  36.01°N, 83.09°W
Report Text: KMOR 272255Z AUTO 33010KT 10SM BKN030 01/M03 A3032 RMK
Loading
Personal Weather Stations






























Interactive Weather Map New forecast layout! Learn more

10-Day Weather Forecast

Advertisements
Track Severe Weather on mobile